Time;durP1;ratioP1;P1;durP2;ratioP2;P2;SDS_P1;SDS_P2;PMS_P1;PMS_P2;Temp;Humidity;BMP_temperature;BMP_pressure;BME280_temperature;BME280_humidity;BME280_pressure;Samples;Min_cycle;Max_cycle;Signal;HPM_P1;HPM_P2
2023/10/14 00:00:26;;;;;;;27.73;15.00;;;;;;;13.14;nan;100709.19;4962643;28;20038;-76
2023/10/14 00:02:52;;;;;;;32.10;15.88;;;;;;;13.10;nan;100694.84;4964146;28;20953;-76
2023/10/14 00:05:19;;;;;;;25.10;14.77;;;;;;;13.01;nan;100677.72;4961391;28;20033;-75
2023/10/14 00:07:45;;;;;;;28.95;14.90;;;;;;;13.11;nan;100691.16;4961350;28;20106;-76
2023/10/14 00:10:12;;;;;;;26.92;15.15;;;;;;;12.99;nan;100681.41;4961032;28;20110;-76
2023/10/14 00:12:39;;;;;;;24.42;14.90;;;;;;;13.01;nan;100689.09;4961467;28;20085;-75
2023/10/14 00:15:06;;;;;;;29.10;14.43;;;;;;;12.98;nan;100690.38;4957438;28;20033;-76
2023/10/14 00:17:36;;;;;;;27.45;14.07;;;;;;;12.78;nan;100666.16;4958569;28;20035;-76
2023/10/14 00:20:03;;;;;;;20.88;13.48;;;;;;;12.87;nan;100683.25;4964431;28;20054;-77
2023/10/14 00:22:29;;;;;;;23.75;13.38;;;;;;;12.81;nan;100678.91;4963608;28;20042;-76
2023/10/14 00:24:58;;;;;;;23.98;13.25;;;;;;;12.87;nan;100679.81;4961149;28;20871;-76
2023/10/14 00:27:24;;;;;;;23.40;13.43;;;;;;;12.85;nan;100680.03;4960075;28;20039;-77
2023/10/14 00:30:06;;;;;;;25.60;12.85;;;;;;;12.89;nan;100680.41;4962042;28;20780;-75
2023/10/14 00:32:32;;;;;;;27.42;13.07;;;;;;;12.87;nan;100680.63;4958986;28;20354;-75
2023/10/14 00:34:57;;;;;;;24.20;12.80;;;;;;;12.85;nan;100672.13;4960932;28;20123;-75
2023/10/14 00:37:22;;;;;;;20.67;12.45;;;;;;;12.87;nan;100670.03;4959532;28;20087;-77
2023/10/14 00:40:00;;;;;;;23.08;12.20;;;;;;;12.86;nan;100668.44;4942588;28;20031;-76
2023/10/14 00:42:26;;;;;;;24.25;12.07;;;;;;;12.82;nan;100659.38;4957669;28;20181;-75
2023/10/14 00:44:51;;;;;;;23.48;13.00;;;;;;;12.85;nan;100664.19;4961229;28;20481;-76
2023/10/14 00:47:17;;;;;;;19.30;11.88;;;;;;;12.83;nan;100654.88;4959811;28;20517;-75
2023/10/14 00:49:42;;;;;;;20.70;12.07;;;;;;;12.86;nan;100663.16;4961967;28;20027;-76
2023/10/14 00:52:18;;;;;;;20.17;11.80;;;;;;;12.82;nan;100650.66;4957054;28;20027;-75
2023/10/14 00:57:20;;;;;;;22.80;11.50;;;;;;;12.82;nan;100648.00;4958179;28;20497;-75
2023/10/14 00:59:50;;;;;;;24.35;11.43;;;;;;;12.88;nan;100658.47;4958035;28;20030;-77
2023/10/14 01:02:29;;;;;;;19.85;11.48;;;;;;;12.85;nan;100655.47;4961597;28;20470;-74
2023/10/14 01:04:55;;;;;;;20.63;10.87;;;;;;;12.71;nan;100647.81;4962462;28;20605;-76
2023/10/14 01:07:21;;;;;;;20.60;11.23;;;;;;;12.67;nan;100640.56;4960128;28;20419;-74
2023/10/14 01:09:53;;;;;;;25.08;10.93;;;;;;;12.67;nan;100645.84;4960235;28;20085;-75
2023/10/14 01:14:58;;;;;;;21.17;11.13;;;;;;;12.50;nan;100640.50;4959135;28;20058;-78
2023/10/14 01:19:54;;;;;;;20.25;10.50;;;;;;;12.46;nan;100642.78;4959419;28;20047;-76
2023/10/14 01:22:20;;;;;;;18.42;10.35;;;;;;;12.18;nan;100603.84;4960187;28;20035;-76
2023/10/14 01:24:45;;;;;;;16.48;10.20;;;;;;;12.31;nan;100630.03;4960539;28;20038;-76
2023/10/14 01:27:13;;;;;;;16.83;10.35;;;;;;;12.38;nan;100637.84;4960517;28;20034;-76
2023/10/14 01:29:39;;;;;;;16.30;10.02;;;;;;;12.34;nan;100634.84;4959521;28;20109;-75
2023/10/14 01:35:41;;;;;;;18.77;10.48;;;;;;;12.19;nan;100615.25;4959801;28;20039;-75
2023/10/14 01:38:00;;;;;;;18.27;10.38;;;;;;;12.26;nan;100616.72;4959339;28;20073;-76
2023/10/14 01:43:30;;;;;;;23.38;10.65;;;;;;;12.11;nan;100611.91;4939708;28;20473;-75
2023/10/14 01:48:21;;;;;;;17.00;10.32;;;;;;;12.03;nan;100596.41;4961700;28;19918;-76
2023/10/14 01:50:54;;;;;;;17.35;10.48;;;;;;;12.07;nan;100594.13;4960613;28;20027;-76
2023/10/14 01:53:23;;;;;;;23.13;10.60;;;;;;;12.13;nan;100601.91;4960018;28;20098;-76
2023/10/14 01:55:52;;;;;;;22.25;9.90;;;;;;;12.20;nan;100611.56;4957701;28;20022;-77
2023/10/14 01:58:22;;;;;;;17.23;10.00;;;;;;;12.21;nan;100618.44;4962772;28;20783;-77
2023/10/14 02:00:56;;;;;;;17.83;10.30;;;;;;;12.09;nan;100594.69;4959497;28;20033;-77
2023/10/14 02:03:22;;;;;;;22.33;9.88;;;;;;;12.09;nan;100590.22;4962924;28;21027;-76
2023/10/14 02:05:51;;;;;;;16.25;10.27;;;;;;;12.17;nan;100604.91;4957906;28;20396;-76
2023/10/14 02:08:21;;;;;;;20.38;10.30;;;;;;;12.08;nan;100587.81;4958306;28;20496;-77
2023/10/14 02:10:50;;;;;;;21.10;10.10;;;;;;;12.08;nan;100593.06;4957827;28;20445;-76
2023/10/14 02:13:17;;;;;;;14.63;9.38;;;;;;;12.19;nan;100605.47;4958440;28;20019;-77
2023/10/14 02:15:46;;;;;;;16.80;9.38;;;;;;;12.20;nan;100606.28;4961280;28;20031;-77
2023/10/14 02:18:22;;;;;;;21.70;10.32;;;;;;;12.18;nan;100598.56;4963629;28;20413;-75
2023/10/14 02:21:05;;;;;;;19.10;9.93;;;;;;;12.20;nan;100598.34;4960210;28;20501;-77
2023/10/14 02:23:45;;;;;;;16.98;9.98;;;;;;;12.15;nan;100585.84;4964050;28;20046;-76
2023/10/14 02:26:22;;;;;;;19.80;9.65;;;;;;;12.19;nan;100597.56;4963163;28;20531;-75
2023/10/14 02:28:49;;;;;;;20.13;10.32;;;;;;;12.12;nan;100584.47;4961964;28;20476;-76
2023/10/14 02:31:20;;;;;;;19.02;9.32;;;;;;;12.16;nan;100581.38;4963579;28;20050;-77
2023/10/14 02:33:46;;;;;;;21.65;9.93;;;;;;;12.05;nan;100572.44;4964405;28;20043;-76
2023/10/14 02:36:16;;;;;;;17.95;10.68;;;;;;;12.13;nan;100578.16;4964295;28;20015;-75
2023/10/14 02:38:52;;;;;;;;;;;;;;;12.10;nan;100575.97;4962005;28;20027;-76
2023/10/14 02:41:17;;;;;;;16.75;9.23;;;;;;;12.05;nan;100567.94;4960338;28;19920;-75
2023/10/14 02:43:43;;;;;;;16.80;10.00;;;;;;;11.88;nan;100536.19;4961267;28;20023;-77
2023/10/14 02:46:11;;;;;;;20.70;9.48;;;;;;;12.10;nan;100580.47;4962763;28;20034;-76
2023/10/14 02:48:53;;;;;;;16.30;9.73;;;;;;;11.99;nan;100562.78;4962922;28;20038;-76
2023/10/14 02:54:04;;;;;;;22.42;9.48;;;;;;;12.07;nan;100575.66;4961088;28;20138;-77
2023/10/14 02:59:18;;;;;;;19.85;9.48;;;;;;;12.02;nan;100557.88;4961717;28;20042;-76
2023/10/14 03:04:27;;;;;;;17.73;9.60;;;;;;;11.93;nan;100548.69;4965070;28;20114;-75
2023/10/14 03:06:53;;;;;;;18.38;9.52;;;;;;;11.96;nan;100555.34;4962113;28;20102;-75
2023/10/14 03:09:20;;;;;;;16.42;9.85;;;;;;;11.88;nan;100548.56;4961098;28;20049;-76
2023/10/14 03:11:48;;;;;;;15.57;9.43;;;;;;;11.78;nan;100533.28;4964534;28;20019;-77
2023/10/14 03:14:15;;;;;;;21.50;10.37;;;;;;;11.92;nan;100552.34;4962149;28;20023;-76
2023/10/14 03:16:41;;;;;;;17.17;10.00;;;;;;;11.85;nan;100541.06;4959187;28;20754;-75
2023/10/14 03:19:07;;;;;;;18.35;9.82;;;;;;;11.79;nan;100536.72;4963986;28;20026;-76
2023/10/14 03:21:34;;;;;;;20.50;10.10;;;;;;;11.80;nan;100543.59;4965218;28;20026;-76
2023/10/14 03:24:00;;;;;;;15.25;9.02;;;;;;;11.65;nan;100526.38;4963909;28;20170;-75
2023/10/14 03:26:32;;;;;;;17.23;9.90;;;;;;;11.79;nan;100560.47;4963852;28;20461;-76
2023/10/14 03:29:03;;;;;;;19.23;9.77;;;;;;;11.73;nan;100537.63;4959867;28;20031;-76
2023/10/14 03:31:35;;;;;;;19.95;9.68;;;;;;;11.79;nan;100547.28;4960750;28;20034;-76
2023/10/14 03:34:00;;;;;;;19.85;10.30;;;;;;;11.69;nan;100538.09;4959221;28;20034;-76
2023/10/14 03:36:29;;;;;;;16.95;10.30;;;;;;;11.65;nan;100539.56;4964095;28;20023;-76
2023/10/14 03:39:16;;;;;;;18.80;10.37;;;;;;;11.56;nan;100519.84;4960383;28;20110;-75
2023/10/14 03:41:42;;;;;;;17.40;9.65;;;;;;;11.76;nan;100542.47;4963393;28;20650;-76
2023/10/14 03:44:12;;;;;;;24.75;10.30;;;;;;;11.69;nan;100532.81;4958913;28;20034;-77
2023/10/14 03:46:43;;;;;;;18.30;10.52;;;;;;;11.64;nan;100513.44;4960212;28;20109;-75
2023/10/14 03:49:20;;;;;;;15.30;9.57;;;;;;;11.55;nan;100496.34;4962259;28;20057;-76
2023/10/14 03:51:52;;;;;;;24.27;9.70;;;;;;;11.62;nan;100508.38;4963335;28;20089;-76
2023/10/14 03:54:24;;;;;;;20.08;9.80;;;;;;;11.70;nan;100521.22;4962705;28;20450;-75
2023/10/14 03:56:50;;;;;;;17.80;10.07;;;;;;;11.56;nan;100498.72;4963884;28;20481;-76
2023/10/14 03:59:22;;;;;;;18.92;9.63;;;;;;;11.68;nan;100515.38;4961839;28;20078;-77
2023/10/14 04:01:54;;;;;;;16.73;9.23;;;;;;;11.76;nan;100526.63;4964573;28;20512;-76
2023/10/14 04:04:21;;;;;;;20.13;9.80;;;;;;;11.66;nan;100522.72;4962372;28;20139;-75
2023/10/14 04:07:13;;;;;;;17.77;9.55;;;;;;;11.58;nan;100512.50;4961119;28;20533;-76
2023/10/14 04:09:39;;;;;;;17.92;10.13;;;;;;;11.55;nan;100515.59;4961767;28;20026;-76
2023/10/14 04:12:22;;;;;;;18.23;10.02;;;;;;;11.44;nan;100509.28;4964169;28;20027;-77
2023/10/14 04:14:54;;;;;;;18.63;9.70;;;;;;;11.39;nan;100501.25;4963135;28;20030;-75
2023/10/14 04:17:20;;;;;;;17.20;10.07;;;;;;;11.38;nan;100504.13;4958563;28;20030;-76
2023/10/14 04:19:57;;;;;;;19.27;10.85;;;;;;;11.41;nan;100511.56;4961443;28;20047;-74
2023/10/14 04:25:04;;;;;;;16.90;9.88;;;;;;;11.49;nan;100516.50;4964790;28;20023;-76
2023/10/14 04:27:35;;;;;;;22.15;10.70;;;;;;;11.45;nan;100504.81;4960774;28;20050;-75
2023/10/14 04:30:44;;;;;;;18.17;10.10;;;;;;;11.40;nan;100502.88;4964117;28;20030;-75
2023/10/14 04:35:25;;;;;;;16.98;9.77;;;;;;;11.40;nan;100512.63;4960972;28;20121;-74
2023/10/14 04:37:54;;;;;;;18.55;9.93;;;;;;;11.38;nan;100514.66;4962175;28;20035;-75
2023/10/14 04:43:19;;;;;;;16.83;9.23;;;;;;;11.27;nan;100497.78;4955640;28;20158;-73
2023/10/14 04:45:52;;;;;;;18.20;9.70;;;;;;;11.23;nan;100488.75;4956883;28;20034;-74
2023/10/14 04:48:26;;;;;;;17.38;9.82;;;;;;;11.27;nan;100495.94;4960817;28;20500;-74
2023/10/14 04:50:57;;;;;;;17.45;9.75;;;;;;;11.23;nan;100497.44;4962014;28;20469;-75
2023/10/14 04:53:26;;;;;;;18.90;10.85;;;;;;;11.12;nan;100479.78;4959313;28;20026;-74
2023/10/14 04:55:51;;;;;;;;;;;;;;;11.22;nan;100498.47;4955100;28;20074;-74
2023/10/14 04:58:23;;;;;;;18.45;10.07;;;;;;;11.18;nan;100489.44;4962514;28;20368;-73
2023/10/14 05:00:49;;;;;;;23.23;10.50;;;;;;;11.22;nan;100498.47;4961121;28;20046;-73
2023/10/14 05:03:21;;;;;;;19.00;10.15;;;;;;;11.14;nan;100487.47;4957479;28;20167;-73
2023/10/14 05:05:48;;;;;;;25.90;10.75;;;;;;;;;;4960785;28;20065;-74
2023/10/14 05:08:21;;;;;;;20.92;10.15;;;;;;;;;;4962280;28;20053;-74
2023/10/14 05:10:50;;;;;;;22.33;10.38;;;;;;;;;;4960533;28;20091;-75
2023/10/14 05:13:19;;;;;;;19.00;10.48;;;;;;;11.63;nan;100544.25;4958212;28;20034;-74
2023/10/14 05:15:52;;;;;;;;;;;;;;;11.42;nan;100495.53;4960843;28;20027;-73
2023/10/14 05:18:27;;;;;;;20.63;10.27;;;;;;;11.45;nan;100502.97;4958381;28;19921;-74
2023/10/14 05:23:24;;;;;;;20.23;11.15;;;;;;;11.49;nan;100479.56;4958684;28;20031;-73
2023/10/14 05:26:06;;;;;;;19.10;10.05;;;;;;;11.60;nan;100499.88;4959051;28;20042;-74
2023/10/14 05:28:35;;;;;;;22.15;10.48;;;;;;;11.55;nan;100494.50;4958139;28;20031;-74
2023/10/14 05:31:08;;;;;;;21.98;10.60;;;;;;;11.47;nan;100487.75;4956828;28;20532;-73
2023/10/14 05:33:37;;;;;;;21.50;11.00;;;;;;;11.52;nan;100499.41;4965999;28;20501;-74
2023/10/14 05:36:05;;;;;;;19.33;10.70;;;;;;;11.46;nan;100488.75;4959947;28;20019;-74
2023/10/14 05:38:30;;;;;;;24.08;10.82;;;;;;;11.37;nan;100482.19;4962497;28;20489;-75
2023/10/14 05:40:58;;;;;;;19.42;10.57;;;;;;;11.45;nan;100487.16;4957007;28;20081;-73
2023/10/14 05:43:25;;;;;;;25.58;11.63;;;;;;;11.53;nan;100501.03;4960015;28;20062;-74
2023/10/14 05:45:53;;;;;;;21.98;11.18;;;;;;;;;;4956955;28;20549;-73
2023/10/14 05:48:26;;;;;;;18.80;12.05;;;;;;;;;;4960244;28;20035;-74
2023/10/14 05:50:52;;;;;;;24.60;11.13;;;;;;;;;;4976540;28;20034;-73
2023/10/14 05:53:17;;;;;;;21.00;11.40;;;;;;;;;;4964895;28;20110;-74
2023/10/14 05:55:47;;;;;;;22.23;11.85;;;;;;;;;;4963477;28;20048;-74
2023/10/14 05:58:12;;;;;;;27.90;11.80;;;;;;;12.19;nan;100560.59;4962440;28;20042;-74
2023/10/14 06:00:40;;;;;;;26.63;11.10;;;;;;;11.84;nan;100491.97;4964718;28;20027;-75
2023/10/14 06:03:11;;;;;;;27.45;11.85;;;;;;;11.82;nan;100491.41;4962348;28;20041;-75
2023/10/14 06:05:36;;;;;;;23.05;11.13;;;;;;;11.96;nan;100503.34;4965671;28;20034;-75
2023/10/14 06:08:16;;;;;;;21.98;11.95;;;;;;;11.67;nan;100447.81;4963861;28;20030;-74
2023/10/14 06:10:42;;;;;;;25.83;11.07;;;;;;;12.08;nan;100498.84;4962203;28;20425;-74
2023/10/14 06:13:09;;;;;;;21.17;11.65;;;;;;;12.02;nan;100486.59;4958825;28;20065;-74
2023/10/14 06:15:39;;;;;;;23.55;10.90;;;;;;;12.15;nan;100490.81;4963555;28;20062;-73
2023/10/14 06:18:05;;;;;;;23.10;12.07;;;;;;;12.16;nan;100481.06;4964777;28;20031;-76
2023/10/14 06:20:35;;;;;;;20.08;11.15;;;;;;;12.27;nan;100490.78;4962696;28;20051;-74
2023/10/14 06:23:00;;;;;;;21.13;11.13;;;;;;;12.26;nan;100476.78;4967379;28;20030;-77
2023/10/14 06:25:29;;;;;;;24.15;11.45;;;;;;;12.40;nan;100495.78;4957317;28;20662;-76
2023/10/14 06:27:55;;;;;;;24.13;12.10;;;;;;;12.48;nan;100487.50;4961001;28;20063;-76
2023/10/14 06:30:20;;;;;;;26.92;12.90;;;;;;;12.50;nan;100477.53;4963823;28;20039;-76
2023/10/14 06:32:58;;;;;;;22.30;11.82;;;;;;;12.65;nan;100498.13;4959633;28;20101;-75
2023/10/14 06:35:26;;;;;;;20.20;11.25;;;;;;;12.75;nan;100497.50;4959853;28;20027;-75
2023/10/14 06:37:53;;;;;;;23.92;11.57;;;;;;;12.81;nan;100496.59;4961793;28;20113;-75
2023/10/14 06:40:19;;;;;;;25.63;11.50;;;;;;;12.94;nan;100506.84;4961373;28;20066;-75
2023/10/14 06:42:53;;;;;;;18.98;10.80;;;;;;;13.05;nan;100501.72;4960624;28;20035;-76
2023/10/14 06:45:21;;;;;;;26.33;10.60;;;;;;;13.35;nan;100534.00;4961813;28;20023;-74
2023/10/14 06:47:57;;;;;;;22.38;10.52;;;;;;;13.17;nan;100505.13;4962339;28;20140;-75
2023/10/14 06:50:26;;;;;;;27.60;11.85;;;;;;;13.28;nan;100509.56;4961489;28;20068;-72
2023/10/14 06:53:01;;;;;;;26.27;11.05;;;;;;;13.34;nan;100499.88;4963719;28;20484;-73
2023/10/14 06:55:28;;;;;;;22.52;10.90;;;;;;;13.38;nan;100498.34;4962689;28;20042;-72
2023/10/14 06:57:55;;;;;;;19.77;10.80;;;;;;;13.45;nan;100492.88;4961120;28;20043;-74
2023/10/14 07:00:30;;;;;;;19.33;9.43;;;;;;;13.57;nan;100504.19;4962428;28;20035;-72
2023/10/14 07:02:59;;;;;;;18.65;10.63;;;;;;;13.74;nan;100504.97;4958595;28;20023;-78
2023/10/14 07:05:25;;;;;;;19.80;11.20;;;;;;;13.90;nan;100505.19;4959276;28;20031;-76
2023/10/14 07:07:50;;;;;;;25.02;10.57;;;;;;;14.06;nan;100514.13;4973080;28;20505;-74
2023/10/14 07:10:16;;;;;;;17.15;8.75;;;;;;;14.13;nan;100520.84;4959194;28;20075;-73
2023/10/14 07:12:43;;;;;;;17.77;9.10;;;;;;;14.08;nan;100496.97;4961773;28;20098;-71
2023/10/14 07:15:15;;;;;;;16.50;8.30;;;;;;;14.19;nan;100506.63;4963927;28;20576;-73
2023/10/14 07:17:42;;;;;;;16.95;8.07;;;;;;;14.47;nan;100513.56;4961678;28;20035;-73
2023/10/14 07:20:10;;;;;;;14.60;7.55;;;;;;;14.49;nan;100497.44;4960368;28;20059;-78
2023/10/14 07:22:42;;;;;;;23.77;8.07;;;;;;;14.64;nan;100516.19;4968767;28;20030;-77
2023/10/14 07:25:09;;;;;;;13.88;6.90;;;;;;;14.75;nan;100511.81;4961639;28;20046;-79
2023/10/14 07:27:36;;;;;;;12.13;7.05;;;;;;;14.80;nan;100503.09;4963682;28;20067;-80
2023/10/14 07:30:14;;;;;;;10.90;6.32;;;;;;;14.73;nan;100482.09;4963521;28;20033;-79
2023/10/14 07:32:42;;;;;;;14.93;6.93;;;;;;;15.09;nan;100512.38;4961487;28;20075;-80
2023/10/14 07:35:11;;;;;;;15.70;6.85;;;;;;;15.17;nan;100507.66;4967232;28;20058;-80
2023/10/14 07:37:39;;;;;;;14.10;7.30;;;;;;;15.36;nan;100519.50;4963097;28;20054;-78
2023/10/14 07:40:11;;;;;;;11.75;6.85;;;;;;;15.48;nan;100522.75;4960413;28;20436;-77
2023/10/14 07:42:37;;;;;;;15.18;6.40;;;;;;;15.49;nan;100508.47;4961351;28;20079;-78
2023/10/14 07:45:03;;;;;;;15.57;6.50;;;;;;;15.67;nan;100509.09;4963397;28;20050;-79
2023/10/14 07:47:29;;;;;;;15.55;6.80;;;;;;;15.77;nan;100505.75;4962251;28;20059;-77
2023/10/14 07:49:54;;;;;;;16.40;6.25;;;;;;;15.85;nan;100498.09;4960033;28;20085;-77
2023/10/14 07:52:21;;;;;;;19.80;6.20;;;;;;;15.98;nan;100504.00;4958240;28;20605;-79
2023/10/14 07:54:51;;;;;;;11.90;6.30;;;;;;;15.99;nan;100487.78;4959707;28;20100;-77
2023/10/14 07:57:17;;;;;;;14.18;7.13;;;;;;;16.20;nan;100501.19;4960903;28;20034;-79
2023/10/14 07:59:43;;;;;;;16.30;6.95;;;;;;;16.35;nan;100503.88;4960709;28;20023;-77
2023/10/14 08:02:10;;;;;;;19.13;7.00;;;;;;;16.43;nan;100499.94;4962675;28;20037;-77
2023/10/14 08:04:35;;;;;;;15.77;7.75;;;;;;;16.63;nan;100512.47;4961545;28;20019;-79
2023/10/14 08:07:05;;;;;;;18.85;7.80;;;;;;;16.64;nan;100484.81;4960958;28;20033;-78
2023/10/14 08:09:32;;;;;;;15.43;7.65;;;;;;;;;;4959657;28;20038;-76
2023/10/14 08:11:59;;;;;;;14.52;7.68;;;;;;;;;;4959675;28;20115;-77
2023/10/14 08:14:24;;;;;;;14.52;7.00;;;;;;;;;;4958772;28;20023;-77
2023/10/14 08:16:49;;;;;;;16.88;7.78;;;;;;;;;;4961539;28;20370;-77
2023/10/14 08:19:16;;;;;;;18.43;7.93;;;;;;;;;;4961040;28;20094;-78
2023/10/14 08:21:41;;;;;;;17.25;7.45;;;;;;;;;;4962006;28;20283;-78
2023/10/14 08:24:07;;;;;;;15.90;7.40;;;;;;;;;;4966311;28;20114;-78
2023/10/14 08:26:34;;;;;;;19.10;7.82;;;;;;;;;;4959750;28;20034;-76
2023/10/14 08:29:00;;;;;;;19.70;7.85;;;;;;;;;;4961649;28;20030;-78
2023/10/14 08:31:25;;;;;;;17.38;7.50;;;;;;;;;;4958648;28;20807;-78
2023/10/14 08:33:50;;;;;;;19.00;8.30;;;;;;;;;;4960756;28;20120;-78
2023/10/14 08:36:16;;;;;;;16.80;8.70;;;;;;;;;;4961679;28;20049;-77
2023/10/14 08:38:44;;;;;;;17.58;8.43;;;;;;;;;;4960671;28;20026;-77
2023/10/14 08:41:14;;;;;;;13.88;7.25;;;;;;;;;;4958626;28;20027;-77
2023/10/14 08:43:42;;;;;;;15.68;7.40;;;;;;;;;;4964342;28;20030;-77
2023/10/14 08:46:08;;;;;;;18.95;7.68;;;;;;;;;;4961488;28;20045;-79
2023/10/14 08:48:36;;;;;;;17.92;7.80;;;;;;;19.04;nan;100416.72;4970223;28;20028;-79
2023/10/14 08:51:02;;;;;;;16.65;7.35;;;;;;;;;;4970193;28;20027;-76
2023/10/14 08:53:30;;;;;;;17.17;7.28;;;;;;;19.37;nan;100404.38;4964617;28;20030;-79
2023/10/14 08:55:57;;;;;;;16.52;6.97;;;;;;;;;;4963594;28;20027;-76
2023/10/14 08:58:25;;;;;;;12.68;6.60;;;;;;;19.82;nan;100402.25;4970355;28;20023;-78
2023/10/14 09:00:54;;;;;;;20.02;6.43;;;;;;;;;;4960449;28;20496;-80
2023/10/14 09:03:19;;;;;;;;;;;;;;;20.18;nan;100418.66;4964825;28;20035;-80
2023/10/14 09:05:45;;;;;;;19.80;6.50;;;;;;;20.29;nan;100344.41;4960170;28;19921;-77
2023/10/14 09:08:12;;;;;;;15.43;6.72;;;;;;;20.43;nan;100399.84;4961852;28;20114;-78
2023/10/14 09:10:39;;;;;;;15.48;6.80;;;;;;;20.56;nan;100393.78;4964902;28;20027;-78
2023/10/14 09:13:09;;;;;;;13.15;6.65;;;;;;;20.68;nan;100404.03;4963091;28;20015;-76
2023/10/14 09:15:39;;;;;;;16.27;6.50;;;;;;;20.88;nan;100326.09;4961208;28;20393;-76
2023/10/14 09:18:12;;;;;;;11.15;6.72;;;;;;;21.05;nan;100354.97;4960462;28;20106;-75
2023/10/14 09:20:38;;;;;;;16.17;6.40;;;;;;;21.23;nan;100406.84;4959152;28;20043;-74
2023/10/14 09:23:17;;;;;;;13.52;6.03;;;;;;;21.37;nan;100378.19;4961607;28;21333;-75
2023/10/14 09:25:50;;;;;;;13.75;6.10;;;;;;;21.49;nan;100372.34;4960024;28;20101;-76
2023/10/14 09:28:20;;;;;;;17.58;6.20;;;;;;;21.62;nan;100389.50;4966340;28;20117;-78
2023/10/14 09:30:49;;;;;;;13.10;6.18;;;;;;;21.71;nan;100378.88;4966543;28;20124;-73
2023/10/14 09:33:18;;;;;;;17.15;6.78;;;;;;;21.81;nan;100375.97;4960550;28;20022;-74
2023/10/14 09:35:48;;;;;;;21.60;7.43;;;;;;;21.90;nan;100368.03;4963828;28;20034;-75
2023/10/14 09:38:19;;;;;;;16.30;6.75;;;;;;;22.00;nan;100298.88;4966571;28;20031;-75
2023/10/14 09:40:57;;;;;;;20.48;6.32;;;;;;;22.09;nan;100355.28;4964672;28;20023;-73
2023/10/14 09:43:27;;;;;;;18.48;7.10;;;;;;;22.17;nan;100394.78;4963674;28;20027;-74
2023/10/14 09:45:56;;;;;;;16.48;6.45;;;;;;;22.25;nan;100343.13;4962127;28;20031;-75
2023/10/14 09:48:29;;;;;;;17.95;6.43;;;;;;;22.25;nan;100382.56;4963236;28;20070;-75
2023/10/14 09:51:00;;;;;;;12.82;6.25;;;;;;;22.30;nan;100387.81;4959382;28;20774;-77
2023/10/14 09:53:27;;;;;;;12.13;5.97;;;;;;;22.46;nan;100391.75;4962074;28;20043;-75
2023/10/14 09:55:58;;;;;;;20.10;6.30;;;;;;;22.57;nan;100386.91;4962790;28;20019;-77
2023/10/14 09:58:30;;;;;;;15.55;6.05;;;;;;;22.67;nan;100375.94;4962519;28;20057;-75
2023/10/14 10:00:58;;;;;;;17.20;6.38;;;;;;;22.73;nan;100366.63;4961921;28;20476;-75
2023/10/14 10:03:23;;;;;;;15.55;6.72;;;;;;;22.76;nan;100351.81;4963009;28;20115;-76
2023/10/14 10:06:13;;;;;;;13.25;6.45;;;;;;;22.95;nan;100370.38;4964096;28;20098;-75
2023/10/14 10:08:57;;;;;;;17.52;6.03;;;;;;;23.06;nan;100371.75;4962021;28;20665;-75
2023/10/14 10:11:24;;;;;;;15.57;6.85;;;;;;;23.13;nan;100368.63;4960805;28;20034;-76
2023/10/14 10:13:53;;;;;;;11.55;6.68;;;;;;;23.17;nan;100356.13;4961275;28;20030;-76
2023/10/14 10:16:21;;;;;;;15.82;7.20;;;;;;;23.26;nan;100354.28;4963990;28;20114;-76
2023/10/14 10:18:56;;;;;;;13.98;6.80;;;;;;;23.26;nan;100343.53;4962010;28;20054;-76
2023/10/14 10:21:25;;;;;;;13.55;7.18;;;;;;;23.39;nan;100347.19;4969539;28;20126;-76
2023/10/14 10:23:56;;;;;;;18.08;6.53;;;;;;;23.22;nan;100306.84;4963116;28;20057;-76
2023/10/14 10:26:23;;;;;;;15.93;6.88;;;;;;;23.27;nan;100312.88;4961141;28;20045;-76
2023/10/14 10:28:49;;;;;;;13.90;7.00;;;;;;;23.45;nan;100334.41;4961757;28;20031;-75
2023/10/14 10:31:20;;;;;;;18.88;7.05;;;;;;;23.57;nan;100345.34;4960400;28;20473;-75
2023/10/14 10:34:07;;;;;;;16.48;7.30;;;;;;;23.62;nan;100349.78;4960208;28;20070;-77
2023/10/14 10:36:34;;;;;;;15.55;7.40;;;;;;;23.66;nan;100353.44;4960523;28;20030;-77
2023/10/14 10:39:17;;;;;;;18.98;8.05;;;;;;;23.65;nan;100339.19;4963085;28;20088;-74
2023/10/14 10:41:43;;;;;;;18.70;8.63;;;;;;;23.72;nan;100333.34;4967187;28;20027;-76
2023/10/14 10:44:11;;;;;;;17.55;8.05;;;;;;;23.75;nan;100324.69;4962147;28;20470;-75
2023/10/14 10:46:43;;;;;;;15.13;7.07;;;;;;;23.77;nan;100317.88;4968571;28;20035;-75
2023/10/14 10:49:11;;;;;;;19.55;7.30;;;;;;;23.79;nan;100306.81;4958283;28;20027;-75
2023/10/14 10:51:42;;;;;;;14.77;7.50;;;;;;;23.88;nan;100269.97;4975326;28;20102;-75
2023/10/14 10:54:10;;;;;;;14.10;7.30;;;;;;;23.92;nan;100267.41;4959465;28;20031;-75
2023/10/14 10:56:35;;;;;;;20.77;7.43;;;;;;;24.03;nan;100273.28;4958408;28;20118;-75
2023/10/14 10:59:04;;;;;;;16.00;7.95;;;;;;;24.06;nan;100280.69;4961142;28;20110;-74
2023/10/14 11:01:31;;;;;;;14.77;7.93;;;;;;;24.04;nan;100256.81;4958261;28;20031;-75
2023/10/14 11:03:58;;;;;;;15.98;7.97;;;;;;;;;;4969388;28;20023;-73
2023/10/14 11:06:24;;;;;;;15.05;7.95;;;;;;;;;;4959850;28;20035;-73
2023/10/14 11:08:50;;;;;;;16.55;8.85;;;;;;;24.26;nan;100315.03;4960172;28;20139;-74
2023/10/14 11:11:16;;;;;;;16.10;7.75;;;;;;;24.16;nan;100289.25;4959561;28;20055;-74
2023/10/14 11:13:42;;;;;;;16.33;8.23;;;;;;;24.16;nan;100283.88;4957617;28;20026;-76
2023/10/14 11:16:12;;;;;;;20.98;8.27;;;;;;;24.25;nan;100291.13;4961174;28;20473;-75
2023/10/14 11:18:58;;;;;;;17.50;8.38;;;;;;;24.32;nan;100286.81;4966004;28;20027;-74
2023/10/14 11:21:27;;;;;;;15.02;8.13;;;;;;;24.36;nan;100276.22;4962074;28;20083;-74
2023/10/14 11:23:53;;;;;;;;;;;;;;;24.42;nan;100281.13;4977553;28;20109;-75
2023/10/14 11:26:19;;;;;;;19.30;8.93;;;;;;;24.45;nan;100271.63;4965489;28;20072;-73
2023/10/14 11:28:45;;;;;;;18.88;9.45;;;;;;;24.45;nan;100268.13;4961971;28;20033;-74
2023/10/14 11:31:14;;;;;;;16.60;8.95;;;;;;;24.47;nan;100261.34;4961611;28;20019;-75
2023/10/14 11:33:39;;;;;;;13.80;9.07;;;;;;;24.49;nan;100259.09;4965682;28;20053;-74
2023/10/14 11:36:05;;;;;;;13.90;8.32;;;;;;;24.58;nan;100267.16;4962557;28;20027;-76
2023/10/14 11:38:31;;;;;;;16.00;8.52;;;;;;;24.60;nan;100264.94;4958984;28;20472;-76
2023/10/14 11:41:02;;;;;;;22.80;9.05;;;;;;;24.60;nan;100259.56;4961814;28;20038;-75
2023/10/14 11:43:30;;;;;;;15.82;9.82;;;;;;;24.63;nan;100261.59;4959152;28;20060;-76
2023/10/14 11:45:56;;;;;;;19.42;10.00;;;;;;;24.68;nan;100249.84;4960827;28;20026;-75
2023/10/14 11:48:26;;;;;;;20.70;9.52;;;;;;;24.69;nan;100249.53;4957268;28;20105;-77
2023/10/14 11:50:59;;;;;;;16.88;9.40;;;;;;;24.77;nan;100246.00;4964758;28;20019;-74
2023/10/14 11:53:29;;;;;;;14.80;9.02;;;;;;;24.83;nan;100241.25;4963882;28;20116;-74
2023/10/14 11:55:58;;;;;;;15.63;9.13;;;;;;;24.80;nan;100223.03;4958464;28;20034;-75
2023/10/14 11:58:28;;;;;;;18.45;9.15;;;;;;;24.83;nan;100215.09;4959436;28;20045;-74
2023/10/14 12:00:54;;;;;;;15.90;9.10;;;;;;;24.91;nan;100220.75;4961217;28;20019;-75
2023/10/14 12:03:27;;;;;;;15.95;9.52;;;;;;;24.95;nan;100227.06;4959503;28;20397;-76
2023/10/14 12:05:57;;;;;;;15.73;9.27;;;;;;;24.94;nan;100220.09;4961549;28;20548;-75
2023/10/14 12:08:27;;;;;;;16.90;9.27;;;;;;;24.93;nan;100210.47;4963930;28;20031;-75
2023/10/14 12:10:53;;;;;;;21.27;9.40;;;;;;;25.00;nan;100210.72;4960855;28;20026;-74
2023/10/14 12:13:19;;;;;;;18.67;8.90;;;;;;;25.12;nan;100220.81;4961788;28;20070;-75
2023/10/14 12:15:46;;;;;;;18.10;9.45;;;;;;;25.17;nan;100207.94;4958541;28;20035;-74
2023/10/14 12:18:13;;;;;;;15.95;8.65;;;;;;;25.05;nan;100183.59;4960487;28;20022;-76
2023/10/14 12:20:40;;;;;;;13.63;9.07;;;;;;;25.28;nan;100204.84;4974213;28;20133;-75
2023/10/14 12:23:06;;;;;;;15.25;9.13;;;;;;;25.18;nan;100185.25;4962873;28;20066;-75
2023/10/14 12:25:32;;;;;;;15.68;9.13;;;;;;;25.32;nan;100197.69;4971967;28;20559;-75
2023/10/14 12:27:57;;;;;;;19.20;8.85;;;;;;;25.30;nan;100194.53;4961295;28;20030;-75
2023/10/14 12:30:35;;;;;;;18.52;9.25;;;;;;;25.25;nan;100176.66;4957536;28;20560;-74